createdAt,value
2022-11-01T00:01:58.263Z,15.00
2022-11-01T00:06:56.406Z,15.00
2022-11-01T00:11:55.678Z,15.00
2022-11-01T00:16:53.732Z,14.90
2022-11-01T00:21:51.692Z,14.90
2022-11-01T00:26:50.537Z,14.80
2022-11-01T00:31:49.958Z,14.90
2022-11-01T00:36:47.953Z,14.90
2022-11-01T00:41:47.169Z,14.80
2022-11-01T00:46:45.088Z,14.80
2022-11-01T00:51:44.373Z,14.80
2022-11-01T00:56:42.285Z,14.80
2022-11-01T01:01:40.281Z,14.80
2022-11-01T01:06:38.253Z,14.80
2022-11-01T01:11:37.539Z,14.80
2022-11-01T01:16:36.063Z,14.80
2022-11-01T01:21:34.055Z,14.80
2022-11-01T01:26:31.944Z,14.80
2022-11-01T01:31:31.252Z,14.80
2022-11-01T01:36:29.232Z,14.80
2022-11-01T01:41:44.802Z,14.80
2022-11-01T01:46:44.063Z,14.80
2022-11-01T01:51:42.211Z,14.80
2022-11-01T01:56:43.032Z,14.80
2022-11-01T02:01:43.580Z,14.80
2022-11-01T02:06:41.830Z,14.80
2022-11-01T02:11:40.142Z,14.70
2022-11-01T02:16:51.981Z,14.70
2022-11-01T02:22:00.353Z,14.60
2022-11-01T02:27:26.373Z,14.50
2022-11-01T02:32:33.065Z,14.50
2022-11-01T02:37:38.210Z,14.50
2022-11-01T02:42:41.707Z,14.50
2022-11-01T02:47:42.112Z,14.50
2022-11-01T02:52:41.998Z,14.40
2022-11-01T02:57:42.188Z,14.40
2022-11-01T03:02:45.267Z,14.40
2022-11-01T03:07:47.239Z,14.40
2022-11-01T03:12:52.973Z,14.40
2022-11-01T03:17:59.322Z,14.40
2022-11-01T03:23:00.894Z,14.30
2022-11-01T03:28:01.280Z,14.20
2022-11-01T03:33:01.221Z,14.20
2022-11-01T03:38:02.502Z,14.20
2022-11-01T03:43:06.685Z,14.10
2022-11-01T03:48:06.477Z,14.10
2022-11-01T03:53:06.650Z,14.10
2022-11-01T03:58:04.894Z,14.10
2022-11-01T04:03:03.312Z,14.10
2022-11-01T04:08:03.244Z,14.00
2022-11-01T04:13:03.830Z,14.00
2022-11-01T04:18:33.609Z,14.00
2022-11-01T04:23:32.987Z,14.00
2022-11-01T04:28:33.403Z,14.00
2022-11-01T04:33:31.537Z,13.90
2022-11-01T04:38:29.470Z,13.80
2022-11-01T04:43:28.768Z,13.80
2022-11-01T04:48:27.640Z,13.80
2022-11-01T04:53:28.123Z,13.80
2022-11-01T04:58:26.024Z,13.90
2022-11-01T05:03:28.569Z,13.90
2022-11-01T05:08:26.519Z,13.80
2022-11-01T05:13:25.101Z,13.70
2022-11-01T05:18:23.071Z,13.60
2022-11-01T05:23:22.327Z,13.50
2022-11-01T05:28:20.269Z,13.60
2022-11-01T05:33:18.238Z,13.60
2022-11-01T05:38:16.202Z,13.50
2022-11-01T05:43:16.011Z,13.50
2022-11-01T05:48:13.945Z,13.30
2022-11-01T05:53:11.849Z,13.20
2022-11-01T05:58:14.456Z,13.30
2022-11-01T06:03:13.765Z,13.30
2022-11-01T06:08:11.729Z,13.30
2022-11-01T06:13:09.815Z,13.30
2022-11-01T06:18:08.030Z,13.30
2022-11-01T06:23:11.509Z,13.30
2022-11-01T06:28:09.465Z,13.30
2022-11-01T06:33:11.610Z,13.40
2022-11-01T06:38:11.493Z,13.50
2022-11-01T06:43:10.306Z,13.40
2022-11-01T06:48:08.343Z,13.50
2022-11-01T06:53:06.480Z,13.60
2022-11-01T06:58:05.921Z,13.70
2022-11-01T07:03:06.348Z,13.80
2022-11-01T07:08:06.205Z,13.90
2022-11-01T07:13:07.733Z,14.00
2022-11-01T07:18:09.214Z,13.90
2022-11-01T07:23:08.073Z,13.80
2022-11-01T07:28:07.550Z,13.90
2022-11-01T07:33:06.737Z,13.80
2022-11-01T07:38:08.044Z,13.80
2022-11-01T07:43:12.173Z,13.90
2022-11-01T07:48:13.144Z,14.00
2022-11-01T07:53:13.160Z,14.20
2022-11-01T07:58:13.247Z,14.30
2022-11-01T08:03:14.836Z,14.20
2022-11-01T08:08:16.685Z,14.20
2022-11-01T08:13:20.863Z,14.30
2022-11-01T08:18:21.429Z,14.40
2022-11-01T08:23:19.337Z,14.40
2022-11-01T08:28:23.702Z,14.50
2022-11-01T08:33:22.276Z,14.80
2022-11-01T08:38:22.337Z,14.90
2022-11-01T08:43:20.348Z,15.00
2022-11-01T08:48:20.479Z,15.30
2022-11-01T08:53:19.538Z,15.70
2022-11-01T08:58:17.406Z,15.90
2022-11-01T09:03:15.607Z,16.00
2022-11-01T09:08:14.863Z,16.00
2022-11-01T09:13:17.810Z,16.20
2022-11-01T09:18:15.827Z,16.30
2022-11-01T09:23:15.093Z,16.80
2022-11-01T09:28:13.987Z,17.40
2022-11-01T09:33:11.896Z,17.90
2022-11-01T09:38:14.841Z,17.80
2022-11-01T09:43:23.755Z,17.50
2022-11-01T09:48:24.077Z,17.20
2022-11-01T09:53:26.159Z,17.00
2022-11-01T09:58:34.046Z,16.80
2022-11-01T10:03:45.369Z,16.60
2022-11-01T10:08:58.272Z,16.50
2022-11-01T10:14:05.640Z,16.50
2022-11-01T10:19:06.039Z,16.50
2022-11-01T10:24:07.978Z,16.50
2022-11-01T10:29:12.965Z,16.60
2022-11-01T10:34:19.647Z,16.70
2022-11-01T10:44:54.636Z,16.80
2022-11-01T10:50:12.119Z,16.90
2022-11-01T10:55:15.133Z,16.80
2022-11-01T11:00:19.542Z,16.90
2022-11-01T11:05:19.994Z,17.10
2022-11-01T11:10:24.062Z,18.00
2022-11-01T11:15:35.747Z,19.90
2022-11-01T11:20:37.267Z,20.90
2022-11-01T11:25:37.957Z,20.40
2022-11-01T11:30:37.311Z,19.40
2022-11-01T11:35:38.600Z,19.00
2022-11-01T11:40:44.707Z,18.60
2022-11-01T11:45:44.127Z,18.40
2022-11-01T11:50:42.996Z,18.30
2022-11-01T11:55:46.728Z,18.10
2022-11-01T12:00:49.992Z,18.10
2022-11-01T12:05:57.510Z,18.00
2022-11-01T12:10:59.463Z,18.00
2022-11-01T12:16:12.256Z,18.00
2022-11-01T12:21:18.485Z,18.10
2022-11-01T12:26:20.568Z,18.20
2022-11-01T12:31:28.821Z,18.20
2022-11-01T12:36:35.445Z,18.20
2022-11-01T12:41:39.804Z,18.30
2022-11-01T12:46:45.675Z,18.30
2022-11-01T12:51:49.560Z,18.10
2022-11-01T12:56:50.827Z,18.00
2022-11-01T13:01:54.706Z,17.90
2022-11-01T13:07:11.237Z,17.90
2022-11-01T13:12:18.782Z,18.10
2022-11-01T13:17:26.746Z,18.30
2022-11-01T13:22:31.316Z,18.60
2022-11-01T13:27:37.378Z,18.80
2022-11-01T13:32:44.602Z,18.80
2022-11-01T13:37:47.907Z,18.80
2022-11-01T13:42:52.842Z,18.90
2022-11-01T13:47:57.655Z,18.90
2022-11-01T13:53:02.711Z,18.80
2022-11-01T13:58:01.077Z,18.80
2022-11-01T14:03:01.211Z,18.60
2022-11-01T14:08:28.006Z,18.50
2022-11-01T14:13:38.034Z,18.50
2022-11-01T14:19:20.253Z,18.50
2022-11-01T14:24:33.557Z,18.40
2022-11-01T14:29:36.048Z,18.50
2022-11-01T14:34:37.006Z,18.50
2022-11-01T14:39:40.510Z,18.60
2022-11-01T14:44:48.112Z,18.80
2022-11-01T14:49:53.503Z,18.80
2022-11-01T14:54:56.979Z,18.80
2022-11-01T14:59:55.558Z,18.70
2022-11-01T15:04:59.184Z,18.50
2022-11-01T15:09:59.526Z,18.40
2022-11-01T15:14:58.921Z,18.40
2022-11-01T15:19:59.414Z,18.30
2022-11-01T15:24:59.921Z,18.10
2022-11-01T15:29:57.984Z,18.00
2022-11-01T15:34:59.377Z,17.90
2022-11-01T15:45:19.094Z,17.70
2022-11-01T15:50:18.689Z,17.60
2022-11-01T15:55:27.014Z,17.50
2022-11-01T16:00:28.336Z,17.50
2022-11-01T16:05:34.371Z,17.40
2022-11-01T16:10:32.317Z,17.30
2022-11-01T16:15:32.968Z,17.20
2022-11-01T16:20:34.984Z,17.10
2022-11-01T16:25:34.814Z,17.00
2022-11-01T16:30:35.879Z,17.00
2022-11-01T16:35:37.012Z,16.90
2022-11-01T16:40:38.333Z,16.80
2022-11-01T16:45:38.210Z,16.80
2022-11-01T16:50:37.450Z,16.70
2022-11-01T16:55:37.327Z,16.70
2022-11-01T17:00:35.404Z,16.60
2022-11-01T17:05:33.320Z,16.50
2022-11-01T17:10:32.554Z,16.40
2022-11-01T17:15:33.098Z,16.40
2022-11-01T17:20:34.288Z,16.40
2022-11-01T17:25:34.197Z,16.30
2022-11-01T17:30:32.396Z,16.30
2022-11-01T17:35:33.666Z,16.20
2022-11-01T17:40:36.619Z,16.10
2022-11-01T17:45:34.591Z,16.00
2022-11-01T17:50:32.979Z,16.00
2022-11-01T17:55:36.333Z,15.90
2022-11-01T18:00:35.923Z,15.90
2022-11-01T18:05:33.979Z,15.90
2022-11-01T18:10:46.729Z,15.90
2022-11-01T18:15:53.262Z,15.80
2022-11-01T18:21:03.879Z,15.70
2022-11-01T18:26:03.133Z,15.60
2022-11-01T18:31:02.627Z,15.50
2022-11-01T18:36:07.392Z,15.40
2022-11-01T18:41:13.180Z,15.30
2022-11-01T18:46:25.136Z,15.20
2022-11-01T18:51:28.943Z,15.10
2022-11-01T18:56:28.427Z,15.10
2022-11-01T19:01:31.672Z,15.00
2022-11-01T19:06:33.450Z,14.90
2022-11-01T19:11:32.869Z,14.70
2022-11-01T19:16:33.366Z,14.70
2022-11-01T19:21:35.718Z,14.60
2022-11-01T19:26:37.342Z,14.60
2022-11-01T19:31:38.880Z,14.40
2022-11-01T19:41:44.815Z,14.30
2022-11-01T19:46:42.736Z,14.20
2022-11-01T19:51:40.716Z,14.10
2022-11-01T19:56:38.959Z,14.00
2022-11-01T20:01:43.112Z,14.00
2022-11-01T20:06:46.618Z,13.90
2022-11-01T20:11:46.792Z,13.90
2022-11-01T20:16:46.462Z,13.80
2022-11-01T20:21:44.593Z,13.80
2022-11-01T20:26:42.559Z,13.70
2022-11-01T20:31:40.521Z,13.70
2022-11-01T20:36:39.823Z,13.70
2022-11-01T20:41:37.812Z,13.60
2022-11-01T20:46:35.819Z,13.60
2022-11-01T20:51:33.886Z,13.50
2022-11-01T20:56:33.279Z,13.40
2022-11-01T21:01:31.396Z,13.40
2022-11-01T21:06:33.067Z,13.30
2022-11-01T21:11:43.943Z,13.30
2022-11-01T21:16:42.270Z,13.20
2022-11-01T21:21:46.603Z,13.20
2022-11-01T21:26:51.993Z,13.10
2022-11-01T21:31:53.346Z,13.10
2022-11-01T21:36:52.159Z,13.00
2022-11-01T21:41:52.647Z,13.00
2022-11-01T21:46:52.196Z,12.90
2022-11-01T21:51:50.100Z,12.90
2022-11-01T21:56:48.312Z,12.80
2022-11-01T22:01:48.836Z,12.70
2022-11-01T22:06:48.813Z,12.60
2022-11-01T22:11:46.787Z,12.60
2022-11-01T22:16:44.819Z,12.60
2022-11-01T22:26:47.084Z,12.50
2022-11-01T22:31:45.012Z,12.50
2022-11-01T22:36:44.275Z,12.50
2022-11-01T22:41:42.772Z,12.50
2022-11-01T22:46:53.419Z,12.40
2022-11-01T22:51:56.964Z,12.40
2022-11-01T22:57:01.293Z,12.40
2022-11-01T23:02:07.888Z,12.50
2022-11-01T23:07:22.908Z,12.50
2022-11-01T23:12:42.224Z,12.50
2022-11-01T23:17:40.124Z,12.40
2022-11-01T23:22:39.384Z,12.40
2022-11-01T23:27:37.490Z,12.40
2022-11-01T23:32:35.419Z,12.40
2022-11-01T23:37:33.324Z,12.40
2022-11-01T23:42:32.612Z,12.30
2022-11-01T23:47:37.895Z,12.30
2022-11-01T23:52:42.334Z,12.30
2022-11-01T23:57:41.665Z,12.20
